createdAt,value
2022-10-15T00:46:26.040Z,66.00
2022-10-15T00:48:59.408Z,66.20
2022-10-15T00:51:33.036Z,66.10
2022-10-15T00:54:02.316Z,65.90
2022-10-15T00:56:34.334Z,66.20
2022-10-15T00:59:03.101Z,66.10
2022-10-15T01:47:22.217Z,65.40
2022-10-15T01:49:53.122Z,66.00
2022-10-15T01:52:26.783Z,66.00
2022-10-15T01:54:56.464Z,65.90
2022-10-15T01:57:28.302Z,66.00
2022-10-15T01:59:58.124Z,65.70
2022-10-15T02:46:47.470Z,65.30
2022-10-15T02:49:17.381Z,65.70
2022-10-15T02:51:45.852Z,65.90
2022-10-15T02:54:18.069Z,65.80
2022-10-15T02:56:48.885Z,65.80
2022-10-15T02:59:19.843Z,66.00
2022-10-15T03:46:10.663Z,65.30
2022-10-15T03:48:44.226Z,65.90
2022-10-15T03:51:17.039Z,65.90
2022-10-15T03:53:51.737Z,66.00
2022-10-15T03:56:22.622Z,65.90
2022-10-15T03:58:51.831Z,66.30
2022-10-15T04:30:20.348Z,66.10
2022-10-15T04:32:56.092Z,65.70
2022-10-15T04:35:24.675Z,65.70
2022-10-15T04:38:00.545Z,66.00
2022-10-15T04:40:36.482Z,65.70
2022-10-15T04:43:05.004Z,65.20
2022-10-15T04:45:35.028Z,66.20
2022-10-15T04:48:03.475Z,65.50
2022-10-15T04:50:32.491Z,65.50
2022-10-15T04:53:20.597Z,66.00
2022-10-15T04:55:52.747Z,65.40
2022-10-15T04:58:21.702Z,65.70
2022-10-15T05:00:51.928Z,65.40
2022-10-15T05:03:38.520Z,66.10
2022-10-15T05:06:12.783Z,65.50
2022-10-15T05:08:43.463Z,65.60
2022-10-15T05:11:23.498Z,65.90
2022-10-15T05:13:53.459Z,65.50
2022-10-15T05:16:26.547Z,65.50
2022-10-15T05:18:59.958Z,65.50
2022-10-15T05:21:29.748Z,65.50
2022-10-15T05:24:01.735Z,65.60
2022-10-15T05:26:51.633Z,66.00
2022-10-15T05:29:20.679Z,66.70
2022-10-15T05:31:52.446Z,65.90
2022-10-15T05:34:30.716Z,65.70
2022-10-15T05:37:07.523Z,65.80
2022-10-15T05:39:36.308Z,65.80
2022-10-15T05:42:04.766Z,65.80
2022-10-15T05:45:02.083Z,65.70
2022-10-15T05:47:31.698Z,65.80
2022-10-15T05:50:15.994Z,65.80
2022-10-15T05:52:48.926Z,65.30
2022-10-15T05:55:23.630Z,65.80
2022-10-15T05:57:52.165Z,65.70
2022-10-15T06:00:20.806Z,65.40
2022-10-15T06:02:55.363Z,65.80
2022-10-15T06:05:26.394Z,65.70
2022-10-15T06:07:55.362Z,65.30
2022-10-15T06:10:23.844Z,65.80
2022-10-15T06:12:52.446Z,65.70
2022-10-15T06:15:21.169Z,65.60
2022-10-15T06:17:49.330Z,66.50
2022-10-15T06:20:18.968Z,67.00
2022-10-15T06:22:47.815Z,66.20
2022-10-15T06:25:16.322Z,66.00
2022-10-15T06:27:45.384Z,65.70
2022-10-15T06:30:14.875Z,65.10
2022-10-15T06:32:50.067Z,64.60
2022-10-15T06:35:21.763Z,64.30
2022-10-15T06:37:50.229Z,64.40
2022-10-15T06:40:19.088Z,64.40
2022-10-15T06:42:47.588Z,64.10
2022-10-15T06:45:18.195Z,64.20
2022-10-15T06:47:49.360Z,63.20
2022-10-15T06:50:19.614Z,62.90
2022-10-15T06:52:48.391Z,62.60
2022-10-15T06:55:16.874Z,62.90
2022-10-15T06:57:45.682Z,62.40
2022-10-15T07:00:19.417Z,62.50
2022-10-15T07:02:51.100Z,61.70
2022-10-15T07:05:21.263Z,61.90
2022-10-15T07:07:54.324Z,63.20
2022-10-15T07:10:22.772Z,62.10
2022-10-15T07:12:51.062Z,63.00
2022-10-15T07:15:20.831Z,63.70
2022-10-15T07:17:49.705Z,63.20
2022-10-15T07:20:21.793Z,62.80
2022-10-15T07:22:59.411Z,63.00
2022-10-15T07:25:31.649Z,62.40
2022-10-15T07:28:01.482Z,61.60
2022-10-15T07:30:30.081Z,62.50
2022-10-15T07:32:59.054Z,63.50
2022-10-15T07:35:29.083Z,63.80
2022-10-15T07:38:03.587Z,63.10
2022-10-15T07:40:32.120Z,63.30
2022-10-15T07:43:01.826Z,63.70
2022-10-15T07:45:32.716Z,63.60
2022-10-15T07:48:01.390Z,63.20
2022-10-15T07:50:34.221Z,62.80
2022-10-15T07:53:08.548Z,62.50
2022-10-15T07:55:37.026Z,63.10
2022-10-15T07:58:08.228Z,62.80
2022-10-15T08:00:36.786Z,62.80
2022-10-15T08:03:05.370Z,63.00
2022-10-15T08:05:34.890Z,62.90
2022-10-15T08:08:03.794Z,62.40
2022-10-15T08:10:33.631Z,63.20
2022-10-15T08:13:02.063Z,63.20
2022-10-15T08:15:31.153Z,63.50
2022-10-15T08:18:01.638Z,62.90
2022-10-15T08:20:31.077Z,63.10
2022-10-15T08:22:59.805Z,63.20
2022-10-15T08:25:28.755Z,63.40
2022-10-15T08:27:58.720Z,63.30
2022-10-15T08:30:26.938Z,63.50
2022-10-15T08:32:55.106Z,63.40
2022-10-15T08:35:23.362Z,63.50
2022-10-15T08:37:56.322Z,64.70
2022-10-15T08:40:25.810Z,64.00
2022-10-15T08:42:54.026Z,64.40
2022-10-15T08:45:31.649Z,64.80
2022-10-15T08:48:03.931Z,63.50
2022-10-15T08:50:42.037Z,63.70
2022-10-15T08:53:16.253Z,63.50
2022-10-15T08:55:50.124Z,63.40
2022-10-15T08:58:25.465Z,62.70
2022-10-15T09:00:59.191Z,63.40
2022-10-15T09:03:38.472Z,63.30
2022-10-15T09:06:16.628Z,63.40
2022-10-15T09:08:59.437Z,63.60
2022-10-15T09:11:45.309Z,63.70
2022-10-15T09:14:17.780Z,63.80
2022-10-15T09:16:52.317Z,63.80
2022-10-15T09:19:23.281Z,63.40
2022-10-15T09:21:54.214Z,62.70
2022-10-15T09:24:26.923Z,62.50
2022-10-15T09:27:06.950Z,62.50
2022-10-15T09:29:45.591Z,62.30
2022-10-15T09:32:23.060Z,63.00
2022-10-15T09:35:00.497Z,63.50
2022-10-15T09:37:37.348Z,64.00
2022-10-15T09:40:45.026Z,63.70
2022-10-15T09:43:15.908Z,63.70
2022-10-15T09:45:44.740Z,63.70
2022-10-15T09:48:20.705Z,64.60
2022-10-15T09:51:01.361Z,65.30
2022-10-15T09:53:47.251Z,64.70
2022-10-15T09:56:19.897Z,64.20
2022-10-15T09:58:55.094Z,64.60
2022-10-15T10:01:25.113Z,64.30
2022-10-15T10:04:12.864Z,64.30
2022-10-15T10:06:53.804Z,63.80
2022-10-15T10:09:24.639Z,64.70
2022-10-15T10:11:55.741Z,64.40
2022-10-15T10:14:28.906Z,64.30
2022-10-15T10:17:18.656Z,65.00
2022-10-15T10:20:17.899Z,65.00
2022-10-15T10:22:51.510Z,65.00
2022-10-15T11:24:21.454Z,70.50
2022-10-15T11:27:11.463Z,67.50
2022-10-15T11:29:54.703Z,66.80
2022-10-15T11:32:54.954Z,69.90
2022-10-15T11:35:52.954Z,72.60
2022-10-15T11:38:33.702Z,68.60
2022-10-15T11:41:27.309Z,67.70
2022-10-15T11:44:31.048Z,67.20
2022-10-15T11:47:14.232Z,66.70
2022-10-15T11:49:53.274Z,66.40
2022-10-15T11:52:45.700Z,65.90
2022-10-15T11:55:20.278Z,65.80
2022-10-15T11:57:53.627Z,65.80
2022-10-15T12:00:33.947Z,65.70
2022-10-15T12:03:08.429Z,65.20
2022-10-15T12:05:42.985Z,65.20
2022-10-15T12:08:13.462Z,65.40
2022-10-15T12:11:04.300Z,65.30
2022-10-15T12:13:41.155Z,64.80
2022-10-15T12:16:24.004Z,64.70
2022-10-15T12:19:03.784Z,66.20
2022-10-15T12:21:38.897Z,65.20
2022-10-15T12:24:25.599Z,64.90
2022-10-15T12:26:54.004Z,65.60
2022-10-15T12:29:26.886Z,65.40
2022-10-15T12:31:57.217Z,65.20
2022-10-15T12:34:40.805Z,65.30
2022-10-15T12:37:18.887Z,65.30
2022-10-15T12:39:52.291Z,65.10
2022-10-15T12:42:27.512Z,65.60
2022-10-15T12:44:56.148Z,65.70
2022-10-15T12:48:19.151Z,65.40
2022-10-15T12:50:48.048Z,65.10
2022-10-15T12:53:34.420Z,65.30
2022-10-15T12:56:23.709Z,65.00
2022-10-15T12:58:53.145Z,65.50
2022-10-15T13:01:51.601Z,65.90
2022-10-15T13:04:21.301Z,65.10
2022-10-15T13:06:49.743Z,65.50
2022-10-15T13:09:30.272Z,65.20
2022-10-15T13:12:00.832Z,65.00
2022-10-15T13:14:33.642Z,65.10
2022-10-15T13:17:07.291Z,64.90
2022-10-15T13:19:41.930Z,65.40
2022-10-15T13:22:24.024Z,65.50
2022-10-15T13:24:52.692Z,65.30
2022-10-15T13:27:27.286Z,65.40
2022-10-15T13:30:01.161Z,65.50
2022-10-15T13:32:32.309Z,65.40
2022-10-15T13:35:04.538Z,65.30
2022-10-15T13:37:36.235Z,65.00
2022-10-15T13:40:08.024Z,65.50
2022-10-15T13:42:37.211Z,65.00
2022-10-15T13:45:19.133Z,65.40
2022-10-15T13:47:51.642Z,65.30
2022-10-15T13:50:25.773Z,65.40
2022-10-15T13:52:58.173Z,65.30
2022-10-15T13:55:28.919Z,65.40
2022-10-15T13:58:03.150Z,65.20
2022-10-15T14:00:34.500Z,65.20
2022-10-15T14:03:15.489Z,64.60
2022-10-15T14:05:46.427Z,65.10
2022-10-15T14:08:36.004Z,65.10
2022-10-15T14:11:04.653Z,64.90
2022-10-15T14:13:32.799Z,65.80
2022-10-15T14:16:14.678Z,65.40
2022-10-15T14:18:49.286Z,65.00
2022-10-15T14:21:21.643Z,64.90
2022-10-15T14:23:50.791Z,65.00
2022-10-15T14:26:25.561Z,65.30
2022-10-15T14:28:55.858Z,65.20
2022-10-15T14:31:38.281Z,65.30
2022-10-15T14:34:31.450Z,64.90
2022-10-15T14:37:01.400Z,64.90
2022-10-15T14:39:32.470Z,65.30
2022-10-15T14:42:03.065Z,65.10
2022-10-15T14:44:46.605Z,65.70
2022-10-15T14:47:23.654Z,65.20
2022-10-15T14:49:55.007Z,65.60
2022-10-15T14:52:24.667Z,65.20
2022-10-15T14:55:08.229Z,65.40
2022-10-15T14:57:41.368Z,65.20
2022-10-15T15:00:30.443Z,65.30
2022-10-15T15:03:00.531Z,65.10
2022-10-15T15:05:30.178Z,65.20
2022-10-15T15:08:04.320Z,65.10
2022-10-15T15:10:34.875Z,65.20
2022-10-15T15:13:02.987Z,65.40
2022-10-15T15:15:31.111Z,65.30
2022-10-15T15:17:59.219Z,65.40
2022-10-15T15:20:27.327Z,65.20
2022-10-15T15:22:56.587Z,65.50
2022-10-15T15:25:32.324Z,65.50
2022-10-15T15:28:00.548Z,65.40
2022-10-15T15:30:32.740Z,65.60
2022-10-15T15:33:02.081Z,65.20
2022-10-15T15:35:37.898Z,65.50
2022-10-15T15:38:08.773Z,65.00
2022-10-15T15:40:38.603Z,65.50
2022-10-15T15:43:06.987Z,65.20
2022-10-15T15:45:35.261Z,65.30
2022-10-15T15:48:03.687Z,65.20
2022-10-15T15:50:32.604Z,65.30
2022-10-15T15:53:01.154Z,65.00
2022-10-15T15:55:29.514Z,65.20
2022-10-15T15:57:59.076Z,65.30
2022-10-15T16:00:27.341Z,65.40
2022-10-15T16:02:57.861Z,65.60
2022-10-15T16:05:26.411Z,66.00
2022-10-15T16:07:54.486Z,65.70
2022-10-15T16:10:22.559Z,65.40
2022-10-15T16:12:50.661Z,65.20
2022-10-15T16:15:20.212Z,65.50
2022-10-15T16:17:48.537Z,65.20
2022-10-15T16:20:19.488Z,65.50
2022-10-15T16:22:50.894Z,65.00
2022-10-15T16:25:19.278Z,65.10
2022-10-15T16:27:48.766Z,65.00
2022-10-15T16:30:19.333Z,65.20
2022-10-15T16:32:47.485Z,65.00
2022-10-15T16:35:15.878Z,65.10
2022-10-15T16:37:45.096Z,65.20
2022-10-15T16:40:14.894Z,65.30
2022-10-15T16:42:43.052Z,65.00
2022-10-15T16:45:12.436Z,65.50
2022-10-15T16:47:41.936Z,65.10
2022-10-15T16:50:11.027Z,65.30
2022-10-15T16:52:39.178Z,65.20
2022-10-15T16:55:08.205Z,65.40
2022-10-15T16:57:36.299Z,65.20
2022-10-15T17:00:05.049Z,65.50
2022-10-15T17:02:33.402Z,65.20
2022-10-15T17:05:02.855Z,65.30
2022-10-15T17:07:30.977Z,65.70
2022-10-15T17:09:59.047Z,65.30
2022-10-15T17:12:27.452Z,65.30
2022-10-15T17:14:56.002Z,65.30
2022-10-15T17:17:24.149Z,65.20
2022-10-15T17:19:52.425Z,65.00
2022-10-15T17:22:22.060Z,65.00
2022-10-15T17:24:50.727Z,64.90
2022-10-15T17:27:19.233Z,65.00
2022-10-15T17:29:47.378Z,65.20
2022-10-15T17:32:15.439Z,65.80
2022-10-15T17:34:43.766Z,65.70
2022-10-15T17:37:12.028Z,65.00
2022-10-15T17:39:41.651Z,65.00
2022-10-15T17:42:09.687Z,65.40
2022-10-15T17:44:37.756Z,65.20
2022-10-15T17:47:05.874Z,65.50
2022-10-15T17:49:33.963Z,65.70
2022-10-15T17:52:01.977Z,65.80
2022-10-15T17:54:30.835Z,66.70
2022-10-15T17:57:00.306Z,66.30
2022-10-15T17:59:28.796Z,67.10
2022-10-15T18:01:59.835Z,66.50
2022-10-15T18:04:29.588Z,67.50
2022-10-15T18:06:58.052Z,66.80
2022-10-15T18:09:27.376Z,67.30
2022-10-15T18:12:03.601Z,68.10
2022-10-15T18:14:35.428Z,68.30
2022-10-15T18:17:04.175Z,67.60
2022-10-15T18:19:32.451Z,69.00
2022-10-15T18:22:01.848Z,68.40
2022-10-15T18:24:30.602Z,71.40
2022-10-15T18:27:03.553Z,70.40
2022-10-15T18:29:32.057Z,68.90
2022-10-15T18:32:00.292Z,68.80
2022-10-15T18:34:33.237Z,66.60
2022-10-15T18:37:01.463Z,67.90
2022-10-15T18:39:29.700Z,69.20
2022-10-15T18:41:58.207Z,68.90
2022-10-15T18:44:29.357Z,68.00
2022-10-15T18:46:58.367Z,66.40
2022-10-15T18:49:30.245Z,67.00
2022-10-15T18:52:10.698Z,66.40
2022-10-15T18:54:49.892Z,66.80
2022-10-15T18:57:18.509Z,66.10
2022-10-15T18:59:50.633Z,65.70
2022-10-15T19:02:31.651Z,65.30
2022-10-15T19:05:02.355Z,65.20
2022-10-15T19:07:32.340Z,64.30
2022-10-15T19:10:00.763Z,64.40
2022-10-15T19:12:29.239Z,64.60
2022-10-15T19:14:58.842Z,64.40
2022-10-15T19:17:28.060Z,65.00
2022-10-15T19:19:56.240Z,65.20
2022-10-15T19:22:24.917Z,65.50
2022-10-15T19:24:53.237Z,66.20
2022-10-15T19:27:21.416Z,71.70
2022-10-15T19:29:50.730Z,71.00
2022-10-15T19:32:21.698Z,70.00
2022-10-15T19:34:50.702Z,70.10
2022-10-15T19:37:19.640Z,69.10
2022-10-15T19:40:11.988Z,68.20
2022-10-15T19:42:40.526Z,67.50
2022-10-15T19:45:10.483Z,67.10
2022-10-15T19:47:40.121Z,66.70
2022-10-15T19:50:09.437Z,67.20
2022-10-15T19:52:44.486Z,66.30
2022-10-15T19:55:13.051Z,66.00
2022-10-15T19:57:42.030Z,66.30
2022-10-15T20:00:13.069Z,67.00
2022-10-15T20:02:42.868Z,67.30
2022-10-15T20:05:11.016Z,66.90
2022-10-15T20:07:40.062Z,66.90
2022-10-15T20:10:10.039Z,66.60
2022-10-15T20:12:38.496Z,66.30
2022-10-15T20:15:09.454Z,66.10
2022-10-15T20:17:38.201Z,64.80
2022-10-15T20:20:09.356Z,64.80
2022-10-15T20:22:37.912Z,64.50
2022-10-15T20:25:06.838Z,64.00
2022-10-15T20:27:35.400Z,63.80
2022-10-15T20:30:04.554Z,64.00
2022-10-15T20:32:35.282Z,64.40
2022-10-15T20:35:05.521Z,64.70
2022-10-15T20:37:35.488Z,65.30
2022-10-15T20:40:04.356Z,65.60
2022-10-15T20:42:34.187Z,64.80
2022-10-15T20:45:02.699Z,64.80
2022-10-15T20:47:31.688Z,65.30
2022-10-15T20:50:00.282Z,64.30
2022-10-15T20:52:29.482Z,64.00
2022-10-15T20:54:59.482Z,63.80
2022-10-15T20:57:28.618Z,64.70
2022-10-15T20:59:57.054Z,64.50
2022-10-15T21:02:26.030Z,65.20
2022-10-15T21:04:55.057Z,64.40
2022-10-15T21:07:24.547Z,64.70
2022-10-15T21:09:54.278Z,64.90
2022-10-15T21:12:24.781Z,65.10
2022-10-15T21:14:53.843Z,64.90
2022-10-15T21:17:22.750Z,64.80
2022-10-15T21:19:52.843Z,65.00
2022-10-15T21:22:22.422Z,64.50
2022-10-15T21:24:51.100Z,64.60
2022-10-15T21:27:21.577Z,64.80
2022-10-15T21:29:53.079Z,64.80
2022-10-15T21:32:23.184Z,64.50
2022-10-15T21:34:52.660Z,64.80
2022-10-15T21:37:21.050Z,64.30
2022-10-15T21:39:49.232Z,65.00
2022-10-15T21:42:18.000Z,64.60
2022-10-15T21:44:46.185Z,64.60
2022-10-15T21:47:16.578Z,65.20
2022-10-15T21:49:46.440Z,64.90
2022-10-15T21:52:15.020Z,65.70
2022-10-15T21:54:43.334Z,65.00
2022-10-15T21:57:11.689Z,65.10
2022-10-15T21:59:39.906Z,65.10
2022-10-15T22:02:08.183Z,65.50
2022-10-15T22:04:37.965Z,65.30
2022-10-15T22:07:09.113Z,65.20
2022-10-15T22:09:37.701Z,65.00
2022-10-15T22:12:06.677Z,65.30
2022-10-15T22:14:35.113Z,65.10
2022-10-15T22:45:12.322Z,65.20
2022-10-15T22:47:42.520Z,66.00
2022-10-15T22:50:11.255Z,65.50
2022-10-15T22:52:39.596Z,65.30
2022-10-15T22:55:08.397Z,65.80
2022-10-15T22:57:36.877Z,65.30
2022-10-15T23:47:12.444Z,65.40
2022-10-15T23:49:40.685Z,65.70
2022-10-15T23:52:09.563Z,65.70
2022-10-15T23:54:37.816Z,65.70
2022-10-15T23:57:06.166Z,66.00
2022-10-15T23:59:34.336Z,66.00
